Time;durP1;ratioP1;P1;durP2;ratioP2;P2;SDS_P1;SDS_P2;PMS_P1;PMS_P2;Temp;Humidity;BMP_temperature;BMP_pressure;BME280_temperature;BME280_humidity;BME280_pressure;Samples;Min_cycle;Max_cycle;Signal;HPM_P1;HPM_P2
2021/07/08 00:00:26;;;;;;;4.83;2.23;;;;;;;17.77;70.50;101154.59;5033230;28;20261;-76
2021/07/08 00:02:53;;;;;;;5.30;2.47;;;;;;;17.75;70.20;101166.47;5032132;28;20241;-77
2021/07/08 00:05:22;;;;;;;6.70;2.50;;;;;;;17.71;70.05;101168.59;5032464;28;20206;-76
2021/07/08 00:07:49;;;;;;;5.10;2.17;;;;;;;17.64;69.89;101164.72;5029612;28;20722;-76
2021/07/08 00:10:20;;;;;;;5.50;2.60;;;;;;;17.55;69.59;101155.56;5027294;28;20711;-77
2021/07/08 00:12:46;;;;;;;3.70;2.20;;;;;;;17.46;69.54;101150.94;5031878;28;20295;-76
2021/07/08 00:15:17;;;;;;;6.60;2.37;;;;;;;17.38;69.55;101157.97;5029986;28;20590;-78
2021/07/08 00:17:45;;;;;;;4.13;2.30;;;;;;;17.30;69.82;101162.13;5031283;28;20595;-78
2021/07/08 00:20:14;;;;;;;4.03;2.60;;;;;;;17.26;70.12;101160.66;5033759;28;20211;-78
2021/07/08 00:22:41;;;;;;;5.70;2.53;;;;;;;17.22;70.19;101163.75;5029574;28;20235;-78
2021/07/08 00:25:11;;;;;;;6.60;2.20;;;;;;;17.15;70.11;101158.03;5033430;28;20215;-78
2021/07/08 00:27:39;;;;;;;3.93;2.27;;;;;;;17.10;70.34;101151.31;5031692;28;20988;-78
2021/07/08 00:30:07;;;;;;;5.20;2.57;;;;;;;17.04;70.27;101160.72;5025707;28;20207;-78
2021/07/08 00:32:34;;;;;;;5.43;2.37;;;;;;;16.95;70.38;101153.44;5028901;28;20228;-78
2021/07/08 00:35:01;;;;;;;8.40;2.60;;;;;;;16.87;70.32;101143.28;5030832;28;20223;-78
2021/07/08 00:37:27;;;;;;;4.87;2.23;;;;;;;16.81;70.61;101149.19;5031831;28;20202;-78
2021/07/08 00:39:54;;;;;;;4.77;2.33;;;;;;;16.79;71.06;101151.16;5027023;28;20207;-78
2021/07/08 00:42:20;;;;;;;5.77;2.47;;;;;;;16.75;71.42;101149.66;5032557;28;20223;-78
2021/07/08 00:44:48;;;;;;;5.17;2.90;;;;;;;16.74;71.30;101153.34;5033857;28;20299;-77
2021/07/08 00:47:15;;;;;;;3.70;2.47;;;;;;;16.68;71.52;101143.06;5030241;28;20224;-78
2021/07/08 00:49:42;;;;;;;2.70;2.40;;;;;;;16.59;71.60;101144.66;5032369;28;20207;-78
2021/07/08 00:52:08;;;;;;;7.90;2.37;;;;;;;16.51;71.67;101144.41;5032831;28;20725;-77
2021/07/08 00:54:35;;;;;;;5.60;2.10;;;;;;;16.44;72.12;101148.56;5032160;28;20218;-77
2021/07/08 00:57:03;;;;;;;3.83;2.10;;;;;;;16.41;72.35;101145.28;5029642;28;20219;-79
2021/07/08 00:59:30;;;;;;;5.00;2.70;;;;;;;16.38;72.53;101146.38;5033709;28;20203;-79
2021/07/08 01:01:59;;;;;;;4.83;2.50;;;;;;;16.39;72.83;101141.84;5030173;28;20231;-79
2021/07/08 01:04:27;;;;;;;7.37;2.50;;;;;;;16.38;72.81;101146.38;5033960;28;20218;-78
2021/07/08 01:06:54;;;;;;;4.47;2.30;;;;;;;16.36;72.79;101144.78;5031176;28;20234;-78
2021/07/08 01:09:21;;;;;;;4.00;2.20;;;;;;;16.33;72.69;101152.09;5035743;28;20206;-79
2021/07/08 01:11:51;;;;;;;4.27;2.53;;;;;;;16.30;72.69;101159.56;5032238;28;20232;-79
2021/07/08 01:14:18;;;;;;;7.17;2.63;;;;;;;16.28;72.99;101164.22;5033560;28;20223;-79
2021/07/08 01:16:44;;;;;;;4.33;2.60;;;;;;;16.26;73.20;101164.34;5036478;28;20589;-78
2021/07/08 01:19:12;;;;;;;6.13;2.47;;;;;;;16.26;73.25;101156.28;5033570;28;20210;-78
2021/07/08 01:21:40;;;;;;;4.17;2.60;;;;;;;16.27;73.53;101149.06;5033131;28;20231;-79
2021/07/08 01:24:08;;;;;;;5.83;2.57;;;;;;;16.28;73.90;101148.94;5033542;28;20293;-79
2021/07/08 01:26:39;;;;;;;4.50;2.53;;;;;;;16.29;73.92;101147.97;5032240;28;20230;-78
2021/07/08 01:29:06;;;;;;;4.87;2.90;;;;;;;16.30;73.76;101138.91;5034191;28;20202;-79
2021/07/08 01:31:32;;;;;;;7.17;2.60;;;;;;;16.30;73.48;101138.91;5031160;28;20227;-79
2021/07/08 01:33:59;;;;;;;5.50;2.83;;;;;;;16.26;73.44;101141.97;5038183;28;20209;-78
2021/07/08 01:36:26;;;;;;;6.20;2.70;;;;;;;16.19;73.27;101138.06;5028797;28;20207;-78
2021/07/08 01:38:54;;;;;;;6.13;2.50;;;;;;;16.09;73.43;101135.25;5029521;28;20239;-78
2021/07/08 01:41:20;;;;;;;7.10;2.70;;;;;;;16.01;73.36;101134.13;5032796;28;20222;-79
2021/07/08 01:43:47;;;;;;;8.37;2.73;;;;;;;15.94;73.96;101136.47;5027505;28;20206;-79
2021/07/08 01:46:16;;;;;;;11.27;3.00;;;;;;;15.89;74.13;101136.81;5027061;28;20258;-79
2021/07/08 01:48:43;;;;;;;6.00;2.70;;;;;;;15.88;74.47;101135.09;5031311;28;20202;-79
2021/07/08 01:51:24;;;;;;;8.27;3.13;;;;;;;15.92;74.60;101131.19;5028956;28;20227;-79
2021/07/08 01:53:53;;;;;;;10.13;3.40;;;;;;;15.94;75.23;101123.03;5033158;28;20210;-79
2021/07/08 01:56:21;;;;;;;7.40;3.13;;;;;;;15.94;75.00;101126.53;5028277;28;20198;-79
2021/07/08 01:58:48;;;;;;;7.83;2.83;;;;;;;15.97;75.51;101125.44;5034437;28;20195;-79
2021/07/08 02:01:16;;;;;;;6.70;2.90;;;;;;;15.98;75.59;101124.47;5025662;28;20257;-79
2021/07/08 02:03:42;;;;;;;8.03;3.60;;;;;;;15.99;75.38;101134.25;5032880;28;20580;-79
2021/07/08 02:06:09;;;;;;;4.03;2.90;;;;;;;16.00;75.63;101135.09;5034273;28;20552;-79
2021/07/08 02:08:36;;;;;;;4.47;3.20;;;;;;;16.02;75.79;101138.53;5031770;28;20203;-79
2021/07/08 02:11:05;;;;;;;7.83;2.93;;;;;;;16.05;75.85;101143.66;5032041;28;20222;-78
2021/07/08 02:13:32;;;;;;;3.80;3.00;;;;;;;16.09;76.08;101142.44;5030144;28;20207;-79
2021/07/08 02:15:58;;;;;;;6.13;3.13;;;;;;;16.12;76.31;101142.22;5040195;28;20206;-79
2021/07/08 02:18:25;;;;;;;5.70;2.80;;;;;;;16.12;76.20;101134.97;5039411;28;20200;-79
2021/07/08 02:20:51;;;;;;;4.30;3.20;;;;;;;16.15;75.97;101147.31;5034060;28;20257;-79
2021/07/08 02:23:18;;;;;;;3.93;3.17;;;;;;;16.16;76.22;101151.72;5037127;28;20207;-78
2021/07/08 02:25:45;;;;;;;4.10;3.53;;;;;;;16.18;76.47;101164.06;5039873;28;20669;-78
2021/07/08 02:28:13;;;;;;;6.10;3.50;;;;;;;16.19;76.39;101159.56;5031623;28;20237;-79
2021/07/08 02:30:39;;;;;;;5.07;3.43;;;;;;;16.20;76.27;101154.06;5032794;28;20665;-79
2021/07/08 02:33:08;;;;;;;5.23;3.37;;;;;;;16.22;76.66;101157.47;5037512;28;20211;-79
2021/07/08 02:35:35;;;;;;;6.17;3.63;;;;;;;16.25;76.61;101151.88;5038037;28;20198;-78
2021/07/08 02:38:03;;;;;;;5.93;3.97;;;;;;;16.30;76.83;101152.34;5038570;28;20800;-80
2021/07/08 02:40:32;;;;;;;3.60;2.97;;;;;;;16.32;77.12;101149.53;5035242;28;20204;-79
2021/07/08 02:43:00;;;;;;;6.53;3.00;;;;;;;16.35;76.89;101140.38;5031022;28;20657;-80
2021/07/08 02:45:30;;;;;;;11.67;3.30;;;;;;;16.35;76.69;101137.69;5024038;28;20210;-79
2021/07/08 02:47:57;;;;;;;6.33;3.13;;;;;;;16.33;76.73;101143.19;5027258;28;20232;-80
2021/07/08 02:50:26;;;;;;;4.33;3.27;;;;;;;16.32;76.98;101145.00;5029228;28;20207;-79
2021/07/08 02:52:53;;;;;;;7.00;3.40;;;;;;;16.32;76.92;101136.09;5037451;28;20242;-79
2021/07/08 02:55:21;;;;;;;11.63;3.50;;;;;;;16.33;76.86;101140.50;5033911;28;20199;-79
2021/07/08 02:57:47;;;;;;;10.77;3.57;;;;;;;16.29;76.69;101139.91;5038300;28;20201;-79
2021/07/08 03:00:16;;;;;;;12.80;3.87;;;;;;;16.25;76.65;101137.56;5034902;28;20203;-78
2021/07/08 03:02:44;;;;;;;11.83;3.50;;;;;;;16.22;77.02;101135.13;5037278;28;20242;-79
2021/07/08 03:05:11;;;;;;;6.80;3.50;;;;;;;16.20;77.18;101147.81;5031033;28;20216;-79
2021/07/08 03:07:38;;;;;;;7.80;3.70;;;;;;;16.21;77.15;101146.84;5035045;28;20218;-79
2021/07/08 03:10:06;;;;;;;7.53;3.73;;;;;;;16.21;77.42;101149.53;5032406;28;20203;-79
2021/07/08 03:12:33;;;;;;;7.27;3.33;;;;;;;16.19;77.14;101154.19;5031257;28;20322;-78
2021/07/08 03:14:59;;;;;;;7.07;3.60;;;;;;;16.14;77.06;101153.66;5036315;28;20297;-78
2021/07/08 03:17:26;;;;;;;14.47;3.80;;;;;;;16.10;76.79;101155.78;5036879;28;20214;-78
2021/07/08 03:19:54;;;;;;;9.60;3.67;;;;;;;16.09;77.23;101155.88;5034112;28;20218;-79
2021/07/08 03:22:20;;;;;;;7.13;2.83;;;;;;;16.09;77.56;101154.06;5033298;28;20226;-80
2021/07/08 03:24:47;;;;;;;6.30;3.03;;;;;;;16.12;77.69;101161.03;5032260;28;20199;-79
2021/07/08 03:27:13;;;;;;;11.93;3.93;;;;;;;16.13;77.40;101168.09;5032638;28;20230;-79
2021/07/08 03:29:40;;;;;;;6.20;2.97;;;;;;;16.15;77.70;101171.50;5028303;28;20207;-79
2021/07/08 03:32:07;;;;;;;5.80;3.27;;;;;;;16.16;77.53;101168.69;5037768;28;20234;-79
2021/07/08 03:34:34;;;;;;;7.77;3.77;;;;;;;16.19;77.54;101170.31;5028233;28;20582;-78
2021/07/08 03:37:02;;;;;;;8.00;3.03;;;;;;;16.21;77.79;101176.41;5032576;28;20198;-79
2021/07/08 03:39:28;;;;;;;6.20;3.13;;;;;;;16.24;77.55;101179.72;5036511;28;20206;-79
2021/07/08 03:41:55;;;;;;;6.67;3.50;;;;;;;16.24;77.25;101179.72;5036344;28;20231;-79
2021/07/08 03:44:21;;;;;;;14.57;3.80;;;;;;;16.22;77.20;101172.75;5031926;28;20654;-78
2021/07/08 03:46:48;;;;;;;8.63;3.90;;;;;;;16.18;77.45;101171.28;5031372;28;20896;-79
2021/07/08 03:49:15;;;;;;;12.57;3.83;;;;;;;16.13;77.46;101168.09;5028806;28;20210;-79
2021/07/08 03:51:42;;;;;;;7.60;3.10;;;;;;;16.12;77.61;101163.72;5035029;28;20222;-79
2021/07/08 03:54:10;;;;;;;13.20;3.83;;;;;;;16.11;77.81;101162.00;5035083;28;20637;-78
2021/07/08 03:56:37;;;;;;;13.93;4.03;;;;;;;16.10;77.74;101158.47;5035154;28;20222;-80
2021/07/08 03:59:04;;;;;;;5.67;3.17;;;;;;;16.10;77.79;101163.84;5022893;28;20591;-79
2021/07/08 04:01:30;;;;;;;9.80;3.60;;;;;;;16.11;77.81;101172.75;5029655;28;20590;-79
2021/07/08 04:03:57;;;;;;;12.67;3.83;;;;;;;16.11;78.03;101175.44;5030598;28;20210;-79
2021/07/08 04:06:23;;;;;;;5.50;3.70;;;;;;;16.10;77.88;101177.28;5031474;28;20575;-80
2021/07/08 04:08:50;;;;;;;10.20;3.90;;;;;;;16.11;78.09;101172.75;5034711;28;20234;-80
2021/07/08 04:11:18;;;;;;;8.70;3.10;;;;;;;16.12;77.98;101185.22;5030410;28;20226;-78
2021/07/08 04:13:44;;;;;;;8.57;4.13;;;;;;;16.13;78.23;101178.84;5030788;28;20213;-78
2021/07/08 04:16:11;;;;;;;9.00;3.57;;;;;;;16.13;78.15;101160.88;5032643;28;20217;-78
2021/07/08 04:18:37;;;;;;;6.73;3.43;;;;;;;16.17;78.56;101162.34;5028547;28;21668;-78
2021/07/08 04:21:05;;;;;;;4.50;3.20;;;;;;;16.20;78.48;101161.25;5033818;28;20224;-78
2021/07/08 04:23:31;;;;;;;11.20;3.80;;;;;;;16.24;78.57;101166.28;5030773;28;20565;-79
2021/07/08 04:25:58;;;;;;;6.37;3.83;;;;;;;16.29;78.64;101160.56;5030854;28;21348;-78
2021/07/08 04:28:26;;;;;;;12.67;3.50;;;;;;;16.34;78.55;101155.66;5031549;28;20229;-78
2021/07/08 04:30:52;;;;;;;5.97;3.47;;;;;;;16.40;78.82;101157.84;5030042;28;20237;-78
2021/07/08 04:33:19;;;;;;;7.07;3.70;;;;;;;16.44;78.46;101156.66;5029996;28;20214;-78
2021/07/08 04:35:46;;;;;;;10.00;4.40;;;;;;;16.48;78.42;101170.69;5029077;28;20206;-78
2021/07/08 04:38:14;;;;;;;17.40;3.67;;;;;;;16.52;78.37;101164.94;5029863;28;20203;-78
2021/07/08 04:40:41;;;;;;;4.77;3.90;;;;;;;16.52;78.38;101159.56;5027048;28;20214;-77
2021/07/08 04:43:11;;;;;;;7.70;3.70;;;;;;;16.55;78.59;101158.47;5026920;28;20208;-78
2021/07/08 04:45:39;;;;;;;12.60;3.83;;;;;;;16.56;78.55;101162.84;5027297;28;20207;-77
2021/07/08 04:48:07;;;;;;;8.70;4.43;;;;;;;16.53;78.69;101158.56;5024845;28;20231;-76
2021/07/08 04:50:34;;;;;;;6.30;3.87;;;;;;;16.51;78.59;101157.84;5027554;28;20659;-76
2021/07/08 04:53:01;;;;;;;6.20;3.37;;;;;;;16.52;78.91;101151.50;5027162;28;20677;-76
2021/07/08 04:55:28;;;;;;;11.33;4.03;;;;;;;16.54;79.21;101144.16;5027968;28;20214;-77
2021/07/08 04:57:56;;;;;;;8.03;3.90;;;;;;;16.59;79.07;101146.47;5027950;28;20631;-76
2021/07/08 05:00:24;;;;;;;8.90;4.33;;;;;;;16.64;79.19;101150.56;5026724;28;20212;-77
2021/07/08 05:02:54;;;;;;;11.13;4.50;;;;;;;16.69;79.22;101160.91;5028473;28;20230;-76
2021/07/08 05:05:21;;;;;;;7.27;3.60;;;;;;;16.76;79.34;101172.03;5028510;28;20213;-77
2021/07/08 05:07:50;;;;;;;8.23;4.10;;;;;;;16.79;79.52;101175.34;5029470;28;20224;-76
2021/07/08 05:10:17;;;;;;;9.83;3.97;;;;;;;16.84;79.60;101180.38;5024064;28;20211;-77
2021/07/08 05:12:44;;;;;;;4.90;3.43;;;;;;;16.91;79.51;101181.56;5028350;28;20698;-76
2021/07/08 05:15:15;;;;;;;9.23;4.07;;;;;;;16.98;79.73;101174.72;5020862;28;20211;-77
2021/07/08 05:17:42;;;;;;;10.40;4.23;;;;;;;17.05;79.78;101172.34;5024610;28;20202;-77
2021/07/08 05:20:12;;;;;;;11.90;5.30;;;;;;;17.10;79.85;101180.91;5025123;28;20204;-77
2021/07/08 05:22:40;;;;;;;9.97;4.00;;;;;;;17.15;79.81;101187.63;5030048;28;20223;-77
2021/07/08 05:25:09;;;;;;;6.83;4.00;;;;;;;17.19;79.88;101189.09;5024193;28;20257;-77
2021/07/08 05:27:36;;;;;;;9.33;4.37;;;;;;;17.24;79.99;101192.25;5030691;28;20233;-77
2021/07/08 05:30:04;;;;;;;7.07;3.80;;;;;;;17.31;79.98;101190.78;5024556;28;20207;-77
2021/07/08 05:32:31;;;;;;;6.47;4.30;;;;;;;17.39;80.11;101198.19;5036063;28;20232;-78
2021/07/08 05:34:57;;;;;;;5.30;3.70;;;;;;;17.46;79.85;101194.00;5025539;28;20222;-78
2021/07/08 05:37:25;;;;;;;6.80;3.63;;;;;;;17.54;79.79;101201.47;5028464;28;20215;-77
2021/07/08 05:39:52;;;;;;;7.23;3.83;;;;;;;17.60;79.70;101198.22;5022159;28;20227;-77
2021/07/08 05:42:18;;;;;;;4.97;3.67;;;;;;;17.66;79.45;101206.69;5027820;28;20254;-76
2021/07/08 05:44:45;;;;;;;8.37;3.40;;;;;;;17.72;79.09;101199.09;5027732;28;20211;-77
2021/07/08 05:47:12;;;;;;;7.40;3.63;;;;;;;17.76;78.76;101198.69;5028183;28;20205;-77
2021/07/08 05:49:38;;;;;;;4.53;3.33;;;;;;;17.80;78.27;101201.97;5027448;28;20213;-77
2021/07/08 05:52:05;;;;;;;7.50;3.60;;;;;;;17.87;77.97;101197.78;5025717;28;20593;-77
2021/07/08 05:54:33;;;;;;;5.13;3.83;;;;;;;17.94;77.82;101207.91;5025554;28;20576;-77
2021/07/08 05:56:59;;;;;;;6.70;4.07;;;;;;;18.02;77.75;101213.50;5028362;28;20716;-78
2021/07/08 05:59:28;;;;;;;7.23;3.80;;;;;;;18.10;77.59;101218.22;5025453;28;20682;-76
2021/07/08 06:01:55;;;;;;;6.03;3.63;;;;;;;18.19;77.23;101212.03;5023870;28;20229;-77
2021/07/08 06:04:21;;;;;;;8.17;3.67;;;;;;;18.26;76.93;101215.94;5026847;28;20231;-76
2021/07/08 06:06:48;;;;;;;4.63;3.33;;;;;;;18.34;76.72;101213.41;5028757;28;20202;-77
2021/07/08 06:09:15;;;;;;;4.33;3.50;;;;;;;18.43;76.43;101210.91;5032997;28;20255;-77
2021/07/08 06:11:42;;;;;;;4.87;3.30;;;;;;;18.52;76.31;101224.44;5033527;28;20228;-77
2021/07/08 06:14:09;;;;;;;6.77;3.13;;;;;;;18.62;75.93;101233.47;5028991;28;20213;-77
2021/07/08 06:16:36;;;;;;;6.30;3.27;;;;;;;18.72;75.78;101245.16;5032177;28;20211;-77
2021/07/08 06:19:02;;;;;;;4.77;3.40;;;;;;;18.84;75.52;101236.94;5033232;28;20209;-77
2021/07/08 06:21:29;;;;;;;7.47;3.40;;;;;;;18.97;75.43;101232.19;5031018;28;20236;-77
2021/07/08 06:23:55;;;;;;;7.70;3.23;;;;;;;19.06;75.11;101234.06;5032219;28;20213;-77
2021/07/08 06:26:22;;;;;;;5.13;3.27;;;;;;;19.15;75.01;101238.66;5028857;28;20211;-77
2021/07/08 06:28:50;;;;;;;5.13;3.43;;;;;;;19.22;74.56;101239.78;5029537;28;20225;-77
2021/07/08 06:31:16;;;;;;;9.67;3.77;;;;;;;19.26;74.54;101235.81;5033817;28;20227;-76
2021/07/08 06:33:44;;;;;;;5.80;3.30;;;;;;;19.31;74.67;101225.47;5022801;28;20207;-76
2021/07/08 06:36:10;;;;;;;8.13;4.30;;;;;;;19.37;74.93;101227.59;5029868;28;20205;-77
2021/07/08 06:38:37;;;;;;;6.03;3.43;;;;;;;19.43;74.54;101216.22;5026838;28;20658;-77
2021/07/08 06:41:04;;;;;;;6.57;3.70;;;;;;;19.49;74.81;101222.06;5020709;28;20224;-77
2021/07/08 06:43:30;;;;;;;5.53;3.73;;;;;;;19.55;74.88;101222.38;5028778;28;20201;-77
2021/07/08 06:45:58;;;;;;;5.97;3.27;;;;;;;19.63;74.91;101218.97;5030136;28;20715;-76
2021/07/08 06:48:24;;;;;;;4.47;3.73;;;;;;;19.68;74.75;101224.81;5018332;28;20231;-76
2021/07/08 06:50:51;;;;;;;4.93;4.03;;;;;;;19.74;74.76;101237.75;5033613;28;20209;-76
2021/07/08 06:53:17;;;;;;;6.40;4.00;;;;;;;19.81;74.81;101238.91;5030934;28;20208;-76
2021/07/08 06:55:44;;;;;;;5.23;4.20;;;;;;;19.86;74.39;101242.03;5026997;28;20669;-76
2021/07/08 06:58:11;;;;;;;7.57;3.63;;;;;;;19.90;74.22;101254.25;5026082;28;20215;-77
2021/07/08 07:00:38;;;;;;;10.00;3.53;;;;;;;19.96;74.34;101253.69;5023960;28;20205;-77
2021/07/08 07:03:07;;;;;;;6.07;3.90;;;;;;;20.05;74.26;101252.00;5029055;28;20240;-77
2021/07/08 07:05:34;;;;;;;8.10;4.00;;;;;;;20.13;74.02;101244.00;5025915;28;20206;-77
2021/07/08 07:08:01;;;;;;;4.47;3.60;;;;;;;20.25;73.93;101242.81;5027828;28;20232;-77
2021/07/08 07:10:29;;;;;;;6.87;3.90;;;;;;;20.38;73.82;101243.41;5027683;28;20208;-77
2021/07/08 07:12:58;;;;;;;4.80;3.40;;;;;;;20.52;73.38;101242.09;5019132;28;20239;-77
2021/07/08 07:15:27;;;;;;;8.13;4.10;;;;;;;20.65;73.31;101233.63;5027782;28;20207;-76
2021/07/08 07:17:54;;;;;;;6.10;3.67;;;;;;;20.73;72.79;101237.31;5032040;28;20223;-77
2021/07/08 07:20:22;;;;;;;6.07;3.43;;;;;;;20.84;72.56;101230.84;5029471;28;20206;-77
2021/07/08 07:22:49;;;;;;;5.50;3.53;;;;;;;20.96;72.16;101229.66;5032241;28;20235;-77
2021/07/08 07:25:17;;;;;;;7.77;3.13;;;;;;;21.07;71.56;101234.03;5026202;28;20205;-76
2021/07/08 07:27:45;;;;;;;8.10;3.73;;;;;;;21.23;71.20;101234.25;5029771;28;20214;-77
2021/07/08 07:30:12;;;;;;;4.63;2.80;;;;;;;21.35;70.71;101230.31;5027344;28;20237;-76
2021/07/08 07:32:39;;;;;;;3.20;2.73;;;;;;;21.45;69.70;101243.81;5032459;28;20235;-77
2021/07/08 07:35:06;;;;;;;4.60;3.37;;;;;;;21.53;69.08;101246.59;5025988;28;20563;-75
2021/07/08 07:37:34;;;;;;;5.85;2.92;;;;;;;21.62;68.77;101244.84;5033681;28;20202;-77
2021/07/08 07:40:00;;;;;;;4.23;2.70;;;;;;;21.73;68.65;101236.47;5027588;28;20210;-76
2021/07/08 07:42:27;;;;;;;4.17;2.83;;;;;;;21.86;67.74;101230.63;5029197;28;20225;-77
2021/07/08 07:44:54;;;;;;;4.50;2.65;;;;;;;21.92;67.16;101243.59;5029191;28;20210;-77
2021/07/08 07:47:20;;;;;;;5.33;2.90;;;;;;;21.98;66.99;101241.09;5026212;28;20217;-76
2021/07/08 07:49:47;;;;;;;4.32;2.63;;;;;;;22.06;66.73;101254.75;5032893;28;20555;-77
2021/07/08 07:52:15;;;;;;;3.45;2.83;;;;;;;22.14;66.54;101245.84;5037890;28;20248;-77
2021/07/08 07:54:43;;;;;;;6.45;2.70;;;;;;;22.22;66.43;101250.47;5035577;28;20301;-77
2021/07/08 07:57:10;;;;;;;5.55;2.50;;;;;;;22.28;65.63;101247.13;5026513;28;20206;-77
2021/07/08 07:59:37;;;;;;;5.85;2.70;;;;;;;22.34;65.34;101236.50;5029975;28;20206;-77
2021/07/08 08:02:09;;;;;;;4.03;2.60;;;;;;;22.42;65.21;101235.69;5027591;28;20233;-77
2021/07/08 08:04:41;;;;;;;6.22;2.85;;;;;;;22.51;65.15;101237.47;5028888;28;20206;-76
2021/07/08 08:09:53;;;;;;;5.70;2.70;;;;;;;22.68;64.98;101244.69;5030128;28;20240;-77
2021/07/08 08:12:20;;;;;;;6.03;2.90;;;;;;;22.72;64.57;101247.94;5021213;28;20230;-77
2021/07/08 08:14:47;;;;;;;4.45;2.88;;;;;;;22.74;64.62;101249.47;5030098;28;20689;-77
2021/07/08 08:17:14;;;;;;;7.47;3.33;;;;;;;22.74;64.33;101264.94;5020747;28;20222;-77
2021/07/08 08:19:41;;;;;;;6.15;2.80;;;;;;;22.75;64.17;101266.63;5028035;28;20204;-77
2021/07/08 08:22:10;;;;;;;4.30;2.67;;;;;;;22.79;64.18;101273.44;5030986;28;20222;-77
2021/07/08 08:24:37;;;;;;;5.80;2.90;;;;;;;22.81;63.80;101272.28;5027790;28;20202;-76
2021/07/08 08:27:06;;;;;;;2.90;2.55;;;;;;;22.85;63.66;101270.94;5031087;28;20218;-76
2021/07/08 08:29:33;;;;;;;5.57;2.60;;;;;;;22.89;63.85;101267.91;5019261;28;20226;-76
2021/07/08 08:31:59;;;;;;;3.50;2.25;;;;;;;22.91;63.63;101261.31;5024466;28;20226;-77
2021/07/08 08:34:26;;;;;;;6.85;3.00;;;;;;;22.94;63.74;101260.09;5018448;28;20574;-76
2021/07/08 08:36:52;;;;;;;5.60;2.83;;;;;;;22.97;63.42;101257.06;5025108;28;20202;-76
2021/07/08 08:39:19;;;;;;;3.60;2.40;;;;;;;22.96;63.17;101256.22;5025993;28;20206;-76
2021/07/08 08:41:46;;;;;;;4.68;2.50;;;;;;;23.00;63.01;101263.03;5023505;28;20226;-77
2021/07/08 08:44:13;;;;;;;6.03;2.40;;;;;;;23.03;62.66;101270.00;5030726;28;20209;-77
2021/07/08 08:46:40;;;;;;;4.45;2.50;;;;;;;23.08;62.68;101279.38;5030975;28;20208;-77
2021/07/08 08:49:07;;;;;;;5.28;2.40;;;;;;;23.15;62.79;101288.56;5027968;28;20232;-77
2021/07/08 08:51:36;;;;;;;4.25;2.22;;;;;;;23.24;62.44;101292.19;5025795;28;20231;-77
2021/07/08 08:54:03;;;;;;;4.95;2.58;;;;;;;23.30;62.25;101277.06;5025377;28;20206;-77
2021/07/08 08:56:30;;;;;;;3.80;2.47;;;;;;;23.39;62.52;101273.38;5022082;28;20209;-77
2021/07/08 08:58:56;;;;;;;4.03;2.33;;;;;;;23.47;62.22;101278.81;5025430;28;20199;-77
2021/07/08 09:01:24;;;;;;;3.80;2.40;;;;;;;23.52;61.45;101276.50;5026711;28;20245;-77
2021/07/08 09:03:51;;;;;;;3.92;2.50;;;;;;;23.53;61.58;101278.22;5025527;28;20210;-76
2021/07/08 09:06:17;;;;;;;4.80;2.47;;;;;;;23.58;61.61;101286.72;5029987;28;20209;-77
2021/07/08 09:08:47;;;;;;;3.63;2.03;;;;;;;23.62;61.51;101295.41;5028054;28;20226;-76
2021/07/08 09:11:16;;;;;;;5.25;2.80;;;;;;;23.68;61.48;101289.28;5024099;28;20305;-76
2021/07/08 09:13:54;;;;;;;5.47;2.50;;;;;;;23.77;61.13;101285.56;5027713;28;20202;-75
2021/07/08 09:16:24;;;;;;;2.45;2.15;;;;;;;23.82;60.88;101277.78;5024712;28;20216;-76
2021/07/08 09:19:02;;;;;;;4.60;2.35;;;;;;;23.88;61.04;101275.22;5027384;28;20292;-76
2021/07/08 09:21:30;;;;;;;8.63;2.70;;;;;;;23.99;60.80;101273.19;5021879;28;20226;-76
2021/07/08 09:24:17;;;;;;;2.35;2.15;;;;;;;;;;5025196;28;20210;-76
2021/07/08 09:26:52;;;;;;;6.07;2.58;;;;;;;24.18;60.12;101268.25;5021122;28;20272;-76
2021/07/08 09:29:20;;;;;;;2.47;2.28;;;;;;;24.23;59.84;101265.91;5029255;28;20703;-76
2021/07/08 09:31:54;;;;;;;4.45;2.63;;;;;;;24.28;59.45;101265.41;5028425;28;20222;-76
2021/07/08 09:34:22;;;;;;;5.63;3.00;;;;;;;24.28;58.74;101268.13;5029863;28;20299;-77
2021/07/08 09:37:02;;;;;;;4.75;2.70;;;;;;;24.27;58.53;101274.59;5029999;28;20919;-77
2021/07/08 09:39:32;;;;;;;6.57;2.83;;;;;;;24.29;58.24;101274.41;5022876;28;20226;-77
2021/07/08 09:41:58;;;;;;;4.75;2.53;;;;;;;24.32;58.27;101274.06;5028203;28;20237;-77
2021/07/08 09:44:27;;;;;;;3.55;2.33;;;;;;;24.37;57.65;101279.84;5029830;28;20206;-77
2021/07/08 09:46:57;;;;;;;6.88;2.70;;;;;;;24.46;57.83;101281.53;5025450;28;20236;-77
2021/07/08 09:49:25;;;;;;;6.82;3.13;;;;;;;24.54;57.44;101278.81;5023613;28;20222;-77
2021/07/08 09:51:52;;;;;;;6.50;2.60;;;;;;;24.62;57.50;101280.66;5025067;28;20237;-77
2021/07/08 09:54:45;;;;;;;4.45;2.60;;;;;;;24.71;57.19;101272.31;5029450;28;20214;-77
2021/07/08 09:57:31;;;;;;;5.65;2.83;;;;;;;24.84;56.98;101275.34;5029193;28;20204;-77
2021/07/08 09:59:58;;;;;;;6.30;2.90;;;;;;;24.95;56.12;101270.56;5023871;28;20675;-76
2021/07/08 10:02:30;;;;;;;5.60;3.17;;;;;;;25.05;56.05;101268.50;5020873;28;20229;-76
2021/07/08 10:04:57;;;;;;;3.92;2.58;;;;;;;25.13;55.99;101277.47;5024719;28;20689;-77
2021/07/08 10:07:25;;;;;;;4.95;2.60;;;;;;;25.21;55.87;101276.59;5023000;28;20198;-77
2021/07/08 10:09:52;;;;;;;6.47;2.72;;;;;;;25.27;55.79;101276.72;5024156;28;20222;-77
2021/07/08 10:12:19;;;;;;;4.80;3.00;;;;;;;25.34;56.16;101263.25;5025298;28;20225;-76
2021/07/08 10:14:47;;;;;;;4.72;2.60;;;;;;;25.39;55.52;101263.56;5024023;28;20206;-77
2021/07/08 10:17:16;;;;;;;4.82;2.50;;;;;;;25.45;55.07;101265.56;5026071;28;20220;-76
2021/07/08 10:19:45;;;;;;;4.25;2.50;;;;;;;25.51;55.06;101261.28;5028558;28;20205;-76
2021/07/08 10:22:12;;;;;;;4.00;2.38;;;;;;;25.46;54.83;101256.34;5028984;28;20226;-76
2021/07/08 10:24:39;;;;;;;6.57;2.80;;;;;;;25.49;54.42;101261.44;5028175;28;20209;-77
2021/07/08 10:27:06;;;;;;;5.63;2.40;;;;;;;25.52;54.40;101247.44;5026359;28;20216;-76
2021/07/08 10:29:33;;;;;;;5.65;2.53;;;;;;;25.59;54.60;101253.06;5022338;28;20699;-77
2021/07/08 10:32:01;;;;;;;6.95;2.92;;;;;;;25.68;53.78;101251.13;5030171;28;20252;-76
2021/07/08 10:34:27;;;;;;;4.28;2.22;;;;;;;25.77;53.57;101250.06;5028748;28;20210;-76
2021/07/08 10:36:55;;;;;;;4.03;2.60;;;;;;;25.85;52.98;101248.09;5028700;28;20569;-76
2021/07/08 10:39:23;;;;;;;12.27;2.88;;;;;;;25.89;53.10;101243.13;5030502;28;20213;-76
2021/07/08 10:41:53;;;;;;;6.20;2.58;;;;;;;25.97;52.79;101243.09;5023745;28;20248;-76
2021/07/08 10:44:47;;;;;;;5.10;2.70;;;;;;;26.02;52.01;101243.38;5027079;28;20206;-76
2021/07/08 10:47:34;;;;;;;4.93;2.65;;;;;;;26.05;51.92;101237.53;5025843;28;20253;-76
2021/07/08 10:50:01;;;;;;;7.43;2.67;;;;;;;26.10;51.83;101243.31;5030315;28;20228;-77
2021/07/08 10:52:44;;;;;;;6.15;2.60;;;;;;;26.20;51.43;101232.97;5032815;28;20229;-77
2021/07/08 10:55:11;;;;;;;4.53;2.47;;;;;;;26.23;50.82;101235.34;5026920;28;20202;-77
2021/07/08 10:57:40;;;;;;;7.68;2.70;;;;;;;26.32;50.91;101232.56;5028650;28;20206;-76
2021/07/08 11:00:08;;;;;;;4.20;2.10;;;;;;;26.42;50.40;101239.44;5023747;28;20205;-76
2021/07/08 11:02:46;;;;;;;3.85;2.38;;;;;;;26.56;50.66;101235.88;5026125;28;20235;-76
2021/07/08 11:05:13;;;;;;;4.45;2.70;;;;;;;26.70;50.25;101233.34;5023008;28;20203;-77
2021/07/08 11:07:48;;;;;;;2.83;2.13;;;;;;;26.81;49.69;101233.72;5020999;28;20202;-77
2021/07/08 11:10:15;;;;;;;4.57;2.20;;;;;;;26.92;49.67;101224.19;5027448;28;20225;-78
2021/07/08 11:12:44;;;;;;;6.00;2.35;;;;;;;27.02;49.04;101218.47;5033193;28;20280;-76
2021/07/08 11:15:10;;;;;;;6.30;2.35;;;;;;;27.12;48.98;101213.56;5030621;28;20575;-77
2021/07/08 11:17:42;;;;;;;3.80;2.60;;;;;;;27.19;49.13;101218.06;5027666;28;20590;-76
2021/07/08 11:20:29;;;;;;;7.18;2.65;;;;;;;27.24;49.66;101220.22;5030759;28;20731;-77
2021/07/08 11:23:18;;;;;;;4.03;2.28;;;;;;;27.26;49.07;101215.41;5026034;28;20265;-77
2021/07/08 11:25:44;;;;;;;7.70;2.55;;;;;;;27.26;48.65;101209.94;5023268;28;20577;-78
2021/07/08 11:28:27;;;;;;;4.60;2.20;;;;;;;27.24;48.38;101218.31;5025751;28;20210;-77
2021/07/08 11:30:58;;;;;;;5.03;2.40;;;;;;;27.26;47.95;101215.41;5025762;28;20229;-76